createdAt,value
2018-10-19T00:00:36.549Z,24.47
2018-10-19T00:03:11.426Z,23.47
2018-10-19T00:05:46.299Z,24.23
2018-10-19T00:08:21.024Z,24.00
2018-10-19T00:10:55.800Z,25.40
2018-10-19T00:13:31.387Z,27.67
2018-10-19T00:16:06.219Z,23.97
2018-10-19T00:18:41.000Z,27.60
2018-10-19T00:21:16.094Z,26.87
2018-10-19T00:23:50.655Z,29.97
2018-10-19T00:26:25.547Z,29.77
2018-10-19T00:29:00.048Z,29.23
2018-10-19T00:31:34.910Z,29.07
2018-10-19T00:34:09.697Z,27.63
2018-10-19T00:36:44.559Z,28.30
2018-10-19T00:39:19.415Z,26.53
2018-10-19T00:41:54.306Z,26.20
2018-10-19T00:44:29.073Z,27.27
2018-10-19T00:47:03.733Z,25.40
2018-10-19T00:49:38.634Z,24.67
2018-10-19T00:52:13.473Z,27.43
2018-10-19T00:54:48.212Z,26.97
2018-10-19T00:57:23.131Z,28.83
2018-10-19T00:59:58.209Z,28.63
2018-10-19T01:02:32.926Z,27.37
2018-10-19T01:05:07.631Z,26.37
2018-10-19T01:07:42.445Z,25.17
2018-10-19T01:10:21.661Z,27.33
2018-10-19T01:12:57.843Z,26.27
2018-10-19T01:15:32.595Z,31.30
2018-10-19T01:18:07.286Z,34.10
2018-10-19T01:20:42.026Z,32.30
2018-10-19T01:23:17.007Z,33.60
2018-10-19T01:25:51.987Z,32.23
2018-10-19T01:28:26.820Z,33.03
2018-10-19T01:31:01.562Z,32.93
2018-10-19T01:33:36.534Z,31.00
2018-10-19T01:36:11.222Z,30.73
2018-10-19T01:38:45.888Z,29.23
2018-10-19T01:41:20.658Z,29.03
2018-10-19T01:43:55.716Z,31.27
2018-10-19T01:46:30.839Z,28.57
2018-10-19T01:49:05.866Z,27.37
2018-10-19T01:51:40.590Z,28.67
2018-10-19T01:54:15.625Z,30.03
2018-10-19T01:56:50.350Z,32.13
2018-10-19T01:59:25.397Z,32.80
2018-10-19T02:02:00.218Z,35.97
2018-10-19T02:04:35.765Z,29.23
2018-10-19T02:07:10.609Z,30.27
2018-10-19T02:09:45.496Z,30.13
2018-10-19T02:12:20.391Z,32.13
2018-10-19T02:14:55.101Z,32.37
2018-10-19T02:17:30.031Z,31.63
2018-10-19T02:20:04.854Z,34.50
2018-10-19T02:22:39.646Z,33.33
2018-10-19T02:25:14.542Z,32.17
2018-10-19T02:27:49.338Z,32.37
2018-10-19T02:30:24.127Z,30.60
2018-10-19T02:32:59.111Z,31.47
2018-10-19T02:35:34.090Z,35.40
2018-10-19T02:38:08.821Z,33.87
2018-10-19T02:40:43.496Z,33.73
2018-10-19T02:43:18.186Z,33.73
2018-10-19T02:45:52.851Z,32.30
2018-10-19T02:48:27.807Z,33.20
2018-10-19T02:51:02.635Z,34.30
2018-10-19T02:53:37.565Z,33.57
2018-10-19T02:56:12.747Z,34.63
2018-10-19T02:58:47.475Z,32.60
2018-10-19T03:01:22.861Z,40.87
2018-10-19T03:03:57.607Z,35.20
2018-10-19T03:06:32.321Z,43.00
2018-10-19T03:09:09.802Z,43.37
2018-10-19T03:11:44.771Z,39.27
2018-10-19T03:14:20.372Z,40.50
2018-10-19T03:16:55.016Z,41.60
2018-10-19T03:19:29.913Z,42.83
2018-10-19T03:22:05.295Z,38.87
2018-10-19T03:24:40.086Z,51.87
2018-10-19T03:27:15.273Z,47.97
2018-10-19T03:29:50.338Z,50.07
2018-10-19T03:32:25.133Z,46.77
2018-10-19T03:35:00.094Z,46.17
2018-10-19T03:37:35.206Z,46.47
2018-10-19T03:40:10.006Z,51.17
2018-10-19T03:42:44.835Z,46.93
2018-10-19T03:45:20.213Z,44.13
2018-10-19T03:47:55.004Z,42.53
2018-10-19T03:50:29.769Z,41.30
2018-10-19T03:53:04.896Z,43.30
2018-10-19T03:55:39.937Z,44.70
2018-10-19T03:58:14.571Z,45.57
2018-10-19T04:00:49.202Z,46.80
2018-10-19T04:03:24.187Z,45.63
2018-10-19T04:05:59.130Z,44.70
2018-10-19T04:08:34.058Z,44.53
2018-10-19T04:11:08.985Z,55.10
2018-10-19T04:13:44.197Z,56.63
2018-10-19T04:16:19.110Z,49.93
2018-10-19T04:18:54.049Z,46.47
2018-10-19T04:21:28.805Z,45.03
2018-10-19T04:24:04.014Z,43.07
2018-10-19T04:26:38.702Z,49.00
2018-10-19T04:29:13.886Z,48.23
2018-10-19T04:31:48.713Z,52.53
2018-10-19T04:34:23.433Z,54.13
2018-10-19T04:37:02.874Z,50.53
2018-10-19T04:39:37.798Z,50.90
2018-10-19T04:42:13.471Z,51.37
2018-10-19T04:44:48.449Z,47.53
2018-10-19T04:47:23.305Z,46.07
2018-10-19T04:49:58.075Z,44.37
2018-10-19T04:52:32.872Z,42.93
2018-10-19T04:55:10.104Z,41.20
2018-10-19T04:57:44.854Z,40.97
2018-10-19T05:00:20.720Z,45.80
2018-10-19T05:02:55.355Z,49.53
2018-10-19T05:05:30.303Z,44.00
2018-10-19T05:08:05.210Z,47.50
2018-10-19T05:10:40.114Z,48.23
2018-10-19T05:13:14.815Z,52.67
2018-10-19T05:15:49.627Z,50.60
2018-10-19T05:18:24.301Z,48.90
2018-10-19T05:20:59.126Z,48.07
2018-10-19T05:23:33.857Z,46.60
2018-10-19T05:26:08.775Z,48.17
2018-10-19T05:28:43.522Z,52.67
2018-10-19T05:31:18.550Z,57.30
2018-10-19T05:33:55.332Z,57.17
2018-10-19T05:36:30.250Z,60.23
2018-10-19T05:39:07.836Z,58.67
2018-10-19T05:41:42.509Z,52.67
2018-10-19T05:44:17.255Z,55.33
2018-10-19T05:46:52.453Z,54.10
2018-10-19T05:49:27.365Z,54.03
2018-10-19T05:52:02.223Z,55.73
2018-10-19T05:54:37.060Z,62.30
2018-10-19T05:57:11.846Z,65.70
2018-10-19T05:59:46.619Z,109.03
2018-10-19T06:02:22.082Z,79.53
2018-10-19T06:04:56.880Z,60.60
2018-10-19T06:07:31.897Z,54.23
2018-10-19T06:10:07.638Z,54.77
2018-10-19T06:12:42.377Z,51.80
2018-10-19T06:15:17.192Z,51.00
2018-10-19T06:17:51.933Z,50.40
2018-10-19T06:20:26.602Z,52.17
2018-10-19T06:23:01.591Z,63.53
2018-10-19T06:25:37.386Z,68.60
2018-10-19T06:28:12.369Z,70.43
2018-10-19T06:30:47.008Z,73.07
2018-10-19T06:33:22.016Z,70.33
2018-10-19T06:35:56.972Z,71.97
2018-10-19T06:38:31.768Z,75.80
2018-10-19T06:41:06.724Z,71.67
2018-10-19T06:43:41.628Z,77.80
2018-10-19T06:46:16.302Z,74.43
2018-10-19T06:48:51.142Z,69.77
2018-10-19T06:51:26.438Z,70.53
2018-10-19T06:54:01.101Z,79.27
2018-10-19T06:56:36.023Z,90.20
2018-10-19T06:59:11.007Z,87.30
2018-10-19T07:01:45.797Z,85.50
2018-10-19T07:04:20.650Z,89.93
2018-10-19T07:06:55.530Z,94.37
2018-10-19T07:09:30.387Z,92.87
2018-10-19T07:12:06.493Z,90.73
2018-10-19T07:14:41.271Z,84.90
2018-10-19T07:17:16.076Z,84.30
2018-10-19T07:19:50.865Z,79.00
2018-10-19T07:22:25.962Z,82.07
2018-10-19T07:25:00.571Z,80.67
2018-10-19T07:27:35.348Z,81.33
2018-10-19T07:30:10.288Z,76.07
2018-10-19T07:32:45.343Z,77.13
2018-10-19T07:35:20.214Z,75.37
2018-10-19T07:37:55.072Z,71.63
2018-10-19T07:40:30.437Z,69.20
2018-10-19T07:43:05.837Z,70.37
2018-10-19T07:45:41.606Z,67.60
2018-10-19T07:48:16.458Z,68.90
2018-10-19T07:50:51.430Z,69.13
2018-10-19T07:53:26.070Z,66.63
2018-10-19T07:56:00.945Z,68.13
2018-10-19T07:58:35.951Z,66.13
2018-10-19T08:01:10.849Z,71.30
2018-10-19T08:03:46.706Z,70.97
2018-10-19T08:06:21.440Z,71.50
2018-10-19T08:08:56.268Z,68.70
2018-10-19T08:11:31.385Z,69.40
2018-10-19T08:14:06.552Z,68.37
2018-10-19T08:16:41.573Z,69.53
2018-10-19T08:19:16.497Z,66.47
2018-10-19T08:21:51.555Z,66.87
2018-10-19T08:24:26.371Z,66.07
2018-10-19T08:27:01.228Z,66.57
2018-10-19T08:29:35.914Z,65.20
2018-10-19T08:32:10.727Z,64.87
2018-10-19T08:34:45.694Z,66.13
2018-10-19T08:37:20.519Z,63.53
2018-10-19T08:39:55.558Z,64.67
2018-10-19T08:42:30.450Z,64.13
2018-10-19T08:45:06.315Z,65.60
2018-10-19T08:47:41.888Z,63.77
2018-10-19T08:50:16.917Z,63.60
2018-10-19T08:52:51.643Z,61.20
2018-10-19T08:55:26.390Z,62.13
2018-10-19T08:58:01.555Z,62.60
2018-10-19T09:00:36.745Z,59.97
2018-10-19T09:03:11.507Z,60.20
2018-10-19T09:05:46.412Z,60.13
2018-10-19T09:08:21.321Z,62.57
2018-10-19T09:10:56.158Z,58.50
2018-10-19T09:13:31.113Z,60.33
2018-10-19T09:16:06.247Z,61.57
2018-10-19T09:18:41.111Z,60.93
2018-10-19T09:21:16.449Z,63.07
2018-10-19T09:23:51.273Z,63.93
2018-10-19T09:26:25.880Z,62.90
2018-10-19T09:29:00.661Z,64.07
2018-10-19T09:31:35.639Z,60.33
2018-10-19T09:34:10.590Z,63.00
2018-10-19T09:36:45.482Z,61.00
2018-10-19T09:39:20.872Z,61.70
2018-10-19T09:41:55.812Z,61.07
2018-10-19T09:44:30.680Z,61.83
2018-10-19T09:47:06.341Z,64.67
2018-10-19T09:49:41.559Z,62.00
2018-10-19T09:52:16.270Z,61.10
2018-10-19T09:54:50.998Z,61.43
2018-10-19T09:57:25.890Z,59.57
2018-10-19T10:00:00.626Z,62.53
2018-10-19T10:02:35.445Z,60.03
2018-10-19T10:05:10.376Z,64.43
2018-10-19T10:07:45.328Z,63.47
2018-10-19T10:10:20.256Z,62.53
2018-10-19T10:12:55.043Z,64.30
2018-10-19T10:15:30.214Z,65.57
2018-10-19T10:18:05.565Z,63.13
2018-10-19T10:20:40.277Z,63.63
2018-10-19T10:23:15.062Z,61.87
2018-10-19T10:25:50.047Z,67.07
2018-10-19T10:28:24.874Z,61.00
2018-10-19T10:31:00.036Z,59.50
2018-10-19T10:33:34.954Z,60.23
2018-10-19T10:36:09.785Z,60.43
2018-10-19T10:38:44.948Z,60.10
2018-10-19T10:41:19.874Z,60.73
2018-10-19T10:43:54.874Z,61.33
2018-10-19T10:46:29.631Z,60.20
2018-10-19T10:49:04.374Z,61.33
2018-10-19T10:51:39.387Z,58.60
2018-10-19T10:54:14.395Z,60.73
2018-10-19T10:56:49.273Z,61.23
2018-10-19T10:59:23.985Z,60.53
2018-10-19T11:01:58.691Z,58.13
2018-10-19T11:04:33.510Z,59.20
2018-10-19T11:07:08.264Z,56.90
2018-10-19T11:09:43.243Z,56.80
2018-10-19T11:12:18.111Z,58.60
2018-10-19T11:14:52.955Z,56.40
2018-10-19T11:17:27.769Z,54.33
2018-10-19T11:20:02.899Z,54.43
2018-10-19T11:22:38.341Z,54.03
2018-10-19T11:25:13.709Z,56.13
2018-10-19T11:27:49.648Z,56.15
2018-10-19T11:30:25.016Z,58.38
2018-10-19T11:33:00.607Z,56.80
2018-10-19T11:35:35.887Z,56.13
2018-10-19T11:38:11.235Z,54.25
2018-10-19T11:40:46.539Z,58.00
2018-10-19T11:43:21.801Z,56.50
2018-10-19T11:45:57.291Z,58.87
2018-10-19T11:48:32.777Z,56.90
2018-10-19T11:51:08.454Z,55.28
2018-10-19T11:53:43.848Z,56.00
2018-10-19T11:56:19.282Z,57.25
2018-10-19T11:58:54.576Z,56.02
2018-10-19T12:01:29.770Z,55.78
2018-10-19T12:04:05.520Z,56.20
2018-10-19T12:06:40.953Z,56.92
2018-10-19T12:09:16.476Z,59.85
2018-10-19T12:11:52.287Z,57.85
2018-10-19T12:14:27.674Z,59.73
2018-10-19T12:17:03.008Z,57.93
2018-10-19T12:19:38.511Z,55.20
2018-10-19T12:22:13.813Z,56.85
2018-10-19T12:24:50.188Z,57.13
2018-10-19T12:27:25.582Z,56.65
2018-10-19T12:30:01.026Z,55.43
2018-10-19T12:32:36.691Z,56.23
2018-10-19T12:35:13.726Z,57.75
2018-10-19T12:37:48.877Z,58.45
2018-10-19T12:40:24.216Z,56.15
2018-10-19T12:42:59.702Z,56.13
2018-10-19T12:46:46.930Z,55.60
2018-10-19T12:49:23.334Z,54.38
2018-10-19T12:51:58.806Z,56.50
2018-10-19T12:54:34.241Z,56.53
2018-10-19T12:57:09.572Z,57.13
2018-10-19T12:59:44.735Z,54.53
2018-10-19T13:02:20.287Z,55.67
2018-10-19T13:04:55.400Z,52.70
2018-10-19T13:07:30.678Z,57.53
2018-10-19T13:10:06.213Z,58.70
2018-10-19T13:12:41.425Z,55.08
2018-10-19T13:15:16.535Z,57.50
2018-10-19T13:17:51.637Z,56.30
2018-10-19T13:20:26.578Z,54.60
2018-10-19T13:23:02.177Z,55.88
2018-10-19T13:25:37.615Z,56.35
2018-10-19T13:28:13.050Z,54.75
2018-10-19T13:30:48.285Z,54.65
2018-10-19T13:33:23.841Z,55.55
2018-10-19T13:35:59.271Z,54.13
2018-10-19T13:38:34.766Z,53.93
2018-10-19T13:41:09.968Z,51.70
2018-10-19T13:43:45.699Z,53.13
2018-10-19T13:46:21.152Z,53.58
2018-10-19T13:48:56.642Z,53.50
2018-10-19T13:51:32.240Z,52.38
2018-10-19T13:54:07.392Z,50.73
2018-10-19T13:56:42.829Z,50.85
2018-10-19T13:59:17.881Z,56.28
2018-10-19T14:01:52.951Z,52.67
2018-10-19T14:04:28.232Z,52.00
2018-10-19T14:07:03.782Z,52.50
2018-10-19T14:09:38.969Z,59.13
2018-10-19T14:12:13.943Z,53.60
2018-10-19T14:14:49.022Z,53.67
2018-10-19T14:17:24.088Z,50.93
2018-10-19T14:19:59.636Z,50.88
2018-10-19T14:22:35.064Z,53.27
2018-10-19T14:25:11.849Z,53.00
2018-10-19T14:27:47.175Z,51.47
2018-10-19T14:30:22.846Z,53.40
2018-10-19T14:32:58.690Z,51.57
2018-10-19T14:35:34.248Z,53.58
2018-10-19T14:38:09.812Z,52.15
2018-10-19T14:40:45.287Z,53.95
2018-10-19T14:43:20.623Z,53.90
2018-10-19T14:45:55.867Z,52.95
2018-10-19T14:48:31.951Z,52.40
2018-10-19T14:51:07.488Z,53.35
2018-10-19T14:53:43.427Z,52.20
2018-10-19T14:56:18.898Z,52.20
2018-10-19T14:58:54.533Z,53.58
2018-10-19T15:01:30.007Z,52.17
2018-10-19T15:04:07.041Z,54.83
2018-10-19T15:06:42.754Z,56.83
2018-10-19T15:09:18.325Z,58.20
2018-10-19T15:11:53.943Z,55.78
2018-10-19T15:14:30.310Z,56.23
2018-10-19T15:17:06.458Z,58.92
2018-10-19T15:19:41.782Z,57.05
2018-10-19T15:22:17.242Z,54.98
2018-10-19T15:24:52.859Z,57.48
2018-10-19T15:27:28.230Z,58.08
2018-10-19T15:30:03.654Z,58.40
2018-10-19T15:32:39.239Z,56.70
2018-10-19T15:35:14.577Z,57.05
2018-10-19T15:37:49.927Z,55.43
2018-10-19T15:40:25.405Z,52.23
2018-10-19T15:43:00.836Z,55.00
2018-10-19T15:45:36.094Z,56.95
2018-10-19T15:48:11.889Z,56.53
2018-10-19T15:50:47.601Z,56.10
2018-10-19T15:53:22.950Z,54.58
2018-10-19T15:55:58.311Z,53.98
2018-10-19T15:58:33.953Z,55.85
2018-10-19T16:01:09.718Z,57.75
2018-10-19T16:03:45.309Z,61.77
2018-10-19T16:06:20.790Z,57.00
2018-10-19T16:08:56.054Z,58.00
2018-10-19T16:11:32.469Z,60.28
2018-10-19T16:14:07.324Z,61.83
2018-10-19T16:16:42.205Z,62.67
2018-10-19T16:19:17.141Z,61.17
2018-10-19T16:21:51.947Z,59.17
2018-10-19T16:24:26.904Z,58.43
2018-10-19T16:27:01.995Z,59.97
2018-10-19T16:29:36.957Z,58.73
2018-10-19T16:32:12.418Z,57.23
2018-10-19T16:34:47.219Z,60.07
2018-10-19T16:37:22.234Z,61.33
2018-10-19T16:39:57.079Z,60.57
2018-10-19T16:42:32.021Z,62.03
2018-10-19T16:45:08.224Z,59.03
2018-10-19T16:47:43.180Z,56.20
2018-10-19T16:50:18.156Z,58.37
2018-10-19T16:52:53.066Z,60.27
2018-10-19T16:55:28.070Z,59.97
2018-10-19T16:58:03.012Z,58.83
2018-10-19T17:00:37.798Z,64.70
2018-10-19T17:03:12.993Z,64.03
2018-10-19T17:05:48.054Z,63.93
2018-10-19T17:08:22.902Z,61.57
2018-10-19T17:10:57.683Z,64.03
2018-10-19T17:13:32.405Z,66.20
2018-10-19T17:16:07.201Z,65.33
2018-10-19T17:18:42.049Z,65.47
2018-10-19T17:21:16.988Z,58.87
2018-10-19T17:23:51.954Z,63.83
2018-10-19T17:26:26.729Z,58.80
2018-10-19T17:29:01.508Z,60.47
2018-10-19T17:31:36.607Z,59.10
2018-10-19T17:34:11.619Z,59.83
2018-10-19T17:36:46.398Z,57.60
2018-10-19T17:39:21.137Z,55.93
2018-10-19T17:41:55.881Z,56.47
2018-10-19T17:44:30.777Z,57.13
2018-10-19T17:47:05.999Z,58.63
2018-10-19T17:49:41.160Z,57.30
2018-10-19T17:52:16.470Z,60.27
2018-10-19T17:54:51.251Z,60.20
2018-10-19T17:57:26.261Z,56.90
2018-10-19T18:00:01.057Z,56.87
2018-10-19T18:02:36.034Z,52.73
2018-10-19T18:05:10.824Z,54.47
2018-10-19T18:07:45.700Z,55.40
2018-10-19T18:10:20.663Z,58.27
2018-10-19T18:12:55.297Z,61.87
2018-10-19T18:15:30.358Z,62.57
2018-10-19T18:18:05.643Z,59.50
2018-10-19T18:20:40.385Z,59.07
2018-10-19T18:23:15.379Z,62.47
2018-10-19T18:25:50.218Z,59.63
2018-10-19T18:28:24.999Z,57.70
2018-10-19T18:31:00.001Z,56.53
2018-10-19T18:33:34.864Z,61.40
2018-10-19T18:36:09.734Z,57.10
2018-10-19T18:38:44.541Z,58.60
2018-10-19T18:41:19.762Z,56.83
2018-10-19T18:43:54.858Z,61.77
2018-10-19T18:46:29.944Z,55.23
2018-10-19T18:49:04.768Z,55.27
2018-10-19T18:51:39.707Z,61.20
2018-10-19T18:54:14.472Z,60.87
2018-10-19T18:56:49.232Z,61.70
2018-10-19T18:59:23.938Z,59.13
2018-10-19T19:01:58.643Z,57.43
2018-10-19T19:04:33.809Z,56.03
2018-10-19T19:07:08.642Z,57.40
2018-10-19T19:09:47.638Z,58.43
2018-10-19T19:12:22.749Z,56.33
2018-10-19T19:14:57.523Z,55.00
2018-10-19T19:17:32.530Z,57.03
2018-10-19T19:20:13.525Z,57.67
2018-10-19T19:22:48.492Z,55.70
2018-10-19T19:25:28.672Z,55.20
2018-10-19T19:28:03.585Z,63.13
2018-10-19T19:30:38.366Z,59.33
2018-10-19T19:33:18.291Z,59.20
2018-10-19T19:35:53.018Z,59.10
2018-10-19T19:38:27.873Z,55.40
2018-10-19T19:41:07.868Z,54.90
2018-10-19T19:43:42.813Z,54.67
2018-10-19T19:46:17.746Z,51.60
2018-10-19T19:48:57.948Z,52.33
2018-10-19T19:51:32.843Z,51.27
2018-10-19T19:54:09.441Z,51.83
2018-10-19T19:56:44.583Z,50.27
2018-10-19T19:59:20.096Z,54.20
2018-10-19T20:01:54.937Z,53.40
2018-10-19T20:04:29.821Z,51.97
2018-10-19T20:07:04.974Z,49.33
2018-10-19T20:09:39.689Z,49.83
2018-10-19T20:12:14.510Z,50.30
2018-10-19T20:14:49.617Z,50.47
2018-10-19T20:17:24.456Z,50.27
2018-10-19T20:19:59.096Z,49.80
2018-10-19T20:22:33.828Z,49.83
2018-10-19T20:25:10.066Z,47.47
2018-10-19T20:27:44.830Z,48.13
2018-10-19T20:30:19.729Z,49.63
2018-10-19T20:32:54.553Z,52.03
2018-10-19T20:35:29.597Z,52.83
2018-10-19T20:38:04.324Z,51.53
2018-10-19T20:40:39.305Z,49.43
2018-10-19T20:43:14.205Z,53.03
2018-10-19T20:45:49.066Z,54.07
2018-10-19T20:48:23.892Z,54.87
2018-10-19T20:50:58.722Z,55.17
2018-10-19T20:53:33.416Z,55.23
2018-10-19T20:56:08.170Z,54.90
2018-10-19T20:58:43.263Z,54.80
2018-10-19T21:01:17.922Z,52.23
2018-10-19T21:03:52.944Z,53.43
2018-10-19T21:06:27.857Z,51.07
2018-10-19T21:09:02.683Z,51.67
2018-10-19T21:11:38.350Z,51.57
2018-10-19T21:14:13.236Z,50.67
2018-10-19T21:16:48.126Z,53.37
2018-10-19T21:19:22.994Z,55.40
2018-10-19T21:21:57.974Z,55.53
2018-10-19T21:24:33.074Z,57.17
2018-10-19T21:27:07.899Z,51.07
2018-10-19T21:29:42.928Z,48.53
2018-10-19T21:32:17.923Z,53.63
2018-10-19T21:34:53.170Z,52.10
2018-10-19T21:37:28.171Z,52.90
2018-10-19T21:40:03.410Z,56.57
2018-10-19T21:42:38.447Z,56.60
2018-10-19T21:45:13.298Z,55.13
2018-10-19T21:47:48.134Z,58.37
2018-10-19T21:50:23.678Z,51.83
2018-10-19T21:52:58.509Z,53.43
2018-10-19T21:55:33.388Z,52.50
2018-10-19T21:58:08.325Z,52.40
2018-10-19T22:00:43.299Z,49.53
2018-10-19T22:03:18.017Z,49.87
2018-10-19T22:05:52.765Z,52.30
2018-10-19T22:08:27.446Z,50.60
2018-10-19T22:11:02.404Z,55.80
2018-10-19T22:13:37.385Z,52.83
2018-10-19T22:16:12.223Z,52.63
2018-10-19T22:18:46.922Z,54.80
2018-10-19T22:21:21.737Z,55.07
2018-10-19T22:23:56.466Z,58.33
2018-10-19T22:26:31.591Z,57.43
2018-10-19T22:29:06.281Z,61.63
2018-10-19T22:31:41.385Z,59.47
2018-10-19T22:34:16.410Z,61.00
2018-10-19T22:36:51.186Z,58.20
2018-10-19T22:39:25.773Z,57.37
2018-10-19T22:42:00.692Z,55.90
2018-10-19T22:44:35.762Z,61.33
2018-10-19T22:47:10.554Z,63.77
2018-10-19T22:49:45.727Z,63.40
2018-10-19T22:52:20.527Z,67.30
2018-10-19T22:54:55.484Z,65.50
2018-10-19T22:57:30.486Z,61.47
2018-10-19T23:00:06.229Z,58.13
2018-10-19T23:02:41.276Z,63.33
2018-10-19T23:05:16.308Z,68.23
2018-10-19T23:07:51.122Z,76.23
2018-10-19T23:10:25.788Z,72.90
2018-10-19T23:13:00.543Z,62.63
2018-10-19T23:15:35.242Z,55.60
2018-10-19T23:18:09.950Z,58.17
2018-10-19T23:20:44.991Z,62.30
2018-10-19T23:23:19.719Z,64.43
2018-10-19T23:25:54.541Z,63.13
2018-10-19T23:28:29.277Z,59.93
2018-10-19T23:31:04.125Z,56.53
2018-10-19T23:33:38.849Z,65.00
2018-10-19T23:36:13.717Z,67.97
2018-10-19T23:38:48.601Z,69.73
2018-10-19T23:41:23.275Z,70.07
2018-10-19T23:43:57.905Z,64.90
2018-10-19T23:46:34.556Z,64.33
2018-10-19T23:49:09.875Z,78.50
2018-10-19T23:51:44.782Z,79.10
2018-10-19T23:54:19.610Z,74.63
2018-10-19T23:56:54.501Z,67.27
2018-10-19T23:59:29.306Z,64.60
